sensor_id;sensor_type;location;lat;lon;timestamp;P1;durP1;ratioP1;P2;durP2;ratioP2
9547;SDS011;4812;51.992;8.648;2023-04-26T00:00:08;13.77;;;3.30;;
9547;SDS011;4812;51.992;8.648;2023-04-26T00:02:55;10.25;;;3.60;;
9547;SDS011;4812;51.992;8.648;2023-04-26T00:05:45;10.35;;;2.90;;
9547;SDS011;4812;51.992;8.648;2023-04-26T00:11:49;13.95;;;3.05;;
9547;SDS011;4812;51.992;8.648;2023-04-26T00:14:35;5.88;;;2.75;;
9547;SDS011;4812;51.992;8.648;2023-04-26T00:17:22;7.65;;;3.08;;
9547;SDS011;4812;51.992;8.648;2023-04-26T00:20:08;13.07;;;3.80;;
9547;SDS011;4812;51.992;8.648;2023-04-26T00:22:58;12.25;;;3.55;;
9547;SDS011;4812;51.992;8.648;2023-04-26T00:25:50;7.53;;;2.90;;
9547;SDS011;4812;51.992;8.648;2023-04-26T00:28:43;9.48;;;2.97;;
9547;SDS011;4812;51.992;8.648;2023-04-26T00:31:36;7.78;;;3.80;;
9547;SDS011;4812;51.992;8.648;2023-04-26T00:34:33;9.45;;;3.03;;
9547;SDS011;4812;51.992;8.648;2023-04-26T00:37:26;13.48;;;3.72;;
9547;SDS011;4812;51.992;8.648;2023-04-26T00:40:21;10.63;;;3.35;;
9547;SDS011;4812;51.992;8.648;2023-04-26T00:43:13;20.38;;;3.67;;
9547;SDS011;4812;51.992;8.648;2023-04-26T00:46:06;13.35;;;4.50;;
9547;SDS011;4812;51.992;8.648;2023-04-26T00:52:24;12.13;;;4.30;;
9547;SDS011;4812;51.992;8.648;2023-04-26T00:58:26;9.25;;;3.85;;
9547;SDS011;4812;51.992;8.648;2023-04-26T01:04:39;14.27;;;4.47;;
9547;SDS011;4812;51.992;8.648;2023-04-26T01:10:57;12.25;;;3.80;;
9547;SDS011;4812;51.992;8.648;2023-04-26T01:13:51;9.25;;;3.72;;
9547;SDS011;4812;51.992;8.648;2023-04-26T01:16:44;6.20;;;3.10;;
9547;SDS011;4812;51.992;8.648;2023-04-26T01:19:45;8.07;;;3.80;;
9547;SDS011;4812;51.992;8.648;2023-04-26T01:25:57;12.60;;;3.42;;
9547;SDS011;4812;51.992;8.648;2023-04-26T01:32:15;9.52;;;4.03;;
9547;SDS011;4812;51.992;8.648;2023-04-26T01:38:26;11.30;;;3.95;;
9547;SDS011;4812;51.992;8.648;2023-04-26T01:41:18;7.57;;;2.70;;
9547;SDS011;4812;51.992;8.648;2023-04-26T01:44:11;18.67;;;4.50;;
9547;SDS011;4812;51.992;8.648;2023-04-26T01:47:04;6.47;;;3.88;;
9547;SDS011;4812;51.992;8.648;2023-04-26T01:49:57;13.40;;;4.05;;
9547;SDS011;4812;51.992;8.648;2023-04-26T01:52:49;8.63;;;4.07;;
9547;SDS011;4812;51.992;8.648;2023-04-26T01:55:44;7.10;;;2.83;;
9547;SDS011;4812;51.992;8.648;2023-04-26T01:58:36;9.60;;;3.38;;
9547;SDS011;4812;51.992;8.648;2023-04-26T02:01:28;7.53;;;3.15;;
9547;SDS011;4812;51.992;8.648;2023-04-26T02:04:21;9.40;;;3.22;;
9547;SDS011;4812;51.992;8.648;2023-04-26T02:10:27;11.85;;;3.17;;
9547;SDS011;4812;51.992;8.648;2023-04-26T02:13:21;10.20;;;4.32;;
9547;SDS011;4812;51.992;8.648;2023-04-26T02:16:13;12.35;;;3.28;;
9547;SDS011;4812;51.992;8.648;2023-04-26T02:22:34;15.30;;;3.72;;
9547;SDS011;4812;51.992;8.648;2023-04-26T02:28:36;6.60;;;3.15;;
9547;SDS011;4812;51.992;8.648;2023-04-26T02:34:42;10.35;;;3.28;;
9547;SDS011;4812;51.992;8.648;2023-04-26T02:40:56;13.80;;;4.32;;
9547;SDS011;4812;51.992;8.648;2023-04-26T02:43:50;15.85;;;5.57;;
9547;SDS011;4812;51.992;8.648;2023-04-26T02:46:44;15.82;;;4.05;;
9547;SDS011;4812;51.992;8.648;2023-04-26T02:49:30;8.13;;;3.85;;
9547;SDS011;4812;51.992;8.648;2023-04-26T02:52:23;11.77;;;3.70;;
9547;SDS011;4812;51.992;8.648;2023-04-26T02:55:16;17.73;;;5.03;;
9547;SDS011;4812;51.992;8.648;2023-04-26T02:58:09;16.95;;;5.75;;
9547;SDS011;4812;51.992;8.648;2023-04-26T03:01:04;21.92;;;7.28;;
9547;SDS011;4812;51.992;8.648;2023-04-26T03:03:56;33.05;;;9.52;;
9547;SDS011;4812;51.992;8.648;2023-04-26T03:10:25;19.00;;;7.10;;
9547;SDS011;4812;51.992;8.648;2023-04-26T03:13:18;20.30;;;6.95;;
9547;SDS011;4812;51.992;8.648;2023-04-26T03:19:27;16.40;;;5.88;;
9547;SDS011;4812;51.992;8.648;2023-04-26T03:22:20;20.92;;;5.95;;
9547;SDS011;4812;51.992;8.648;2023-04-26T03:25:13;11.27;;;5.75;;
9547;SDS011;4812;51.992;8.648;2023-04-26T03:28:06;11.55;;;5.28;;
9547;SDS011;4812;51.992;8.648;2023-04-26T03:30:59;17.40;;;5.93;;
9547;SDS011;4812;51.992;8.648;2023-04-26T03:33:54;15.77;;;6.47;;
9547;SDS011;4812;51.992;8.648;2023-04-26T03:36:49;23.90;;;5.72;;
9547;SDS011;4812;51.992;8.648;2023-04-26T03:39:42;12.67;;;5.40;;
9547;SDS011;4812;51.992;8.648;2023-04-26T03:42:35;18.63;;;6.50;;
9547;SDS011;4812;51.992;8.648;2023-04-26T03:45:28;11.93;;;5.45;;
9547;SDS011;4812;51.992;8.648;2023-04-26T03:48:21;18.73;;;6.35;;
9547;SDS011;4812;51.992;8.648;2023-04-26T03:51:14;11.07;;;4.95;;
9547;SDS011;4812;51.992;8.648;2023-04-26T03:54:08;13.98;;;4.60;;
9547;SDS011;4812;51.992;8.648;2023-04-26T03:59:54;11.32;;;4.65;;
9547;SDS011;4812;51.992;8.648;2023-04-26T04:06:09;16.48;;;4.93;;
9547;SDS011;4812;51.992;8.648;2023-04-26T04:12:08;12.55;;;5.15;;
9547;SDS011;4812;51.992;8.648;2023-04-26T04:18:14;12.32;;;5.82;;
9547;SDS011;4812;51.992;8.648;2023-04-26T04:24:19;22.23;;;6.25;;
9547;SDS011;4812;51.992;8.648;2023-04-26T04:27:13;21.25;;;6.57;;
9547;SDS011;4812;51.992;8.648;2023-04-26T04:30:07;15.15;;;5.93;;
9547;SDS011;4812;51.992;8.648;2023-04-26T04:33:00;14.30;;;6.22;;
9547;SDS011;4812;51.992;8.648;2023-04-26T04:35:53;14.00;;;6.30;;
9547;SDS011;4812;51.992;8.648;2023-04-26T04:38:46;19.77;;;6.50;;
9547;SDS011;4812;51.992;8.648;2023-04-26T04:41:41;20.98;;;7.18;;
9547;SDS011;4812;51.992;8.648;2023-04-26T04:44:40;16.20;;;6.22;;
9547;SDS011;4812;51.992;8.648;2023-04-26T04:47:33;16.90;;;5.82;;
9547;SDS011;4812;51.992;8.648;2023-04-26T04:50:27;12.63;;;5.45;;
9547;SDS011;4812;51.992;8.648;2023-04-26T04:53:22;17.27;;;5.20;;
9547;SDS011;4812;51.992;8.648;2023-04-26T04:56:16;13.63;;;7.10;;
9547;SDS011;4812;51.992;8.648;2023-04-26T04:59:09;11.57;;;5.53;;
9547;SDS011;4812;51.992;8.648;2023-04-26T05:02:03;8.98;;;4.45;;
9547;SDS011;4812;51.992;8.648;2023-04-26T05:08:13;12.75;;;5.13;;
9547;SDS011;4812;51.992;8.648;2023-04-26T05:14:22;7.20;;;4.85;;
9547;SDS011;4812;51.992;8.648;2023-04-26T05:17:15;8.73;;;4.07;;
9547;SDS011;4812;51.992;8.648;2023-04-26T05:20:08;10.23;;;4.85;;
9547;SDS011;4812;51.992;8.648;2023-04-26T05:23:01;12.05;;;4.38;;
9547;SDS011;4812;51.992;8.648;2023-04-26T05:25:54;8.18;;;3.10;;
9547;SDS011;4812;51.992;8.648;2023-04-26T05:29:06;6.28;;;2.97;;
9547;SDS011;4812;51.992;8.648;2023-04-26T05:32:24;5.77;;;2.50;;
9547;SDS011;4812;51.992;8.648;2023-04-26T05:35:29;6.45;;;2.67;;
9547;SDS011;4812;51.992;8.648;2023-04-26T05:38:22;6.18;;;2.83;;
9547;SDS011;4812;51.992;8.648;2023-04-26T05:41:15;7.57;;;3.17;;
9547;SDS011;4812;51.992;8.648;2023-04-26T05:44:09;11.40;;;3.60;;
9547;SDS011;4812;51.992;8.648;2023-04-26T05:47:01;6.20;;;3.00;;
9547;SDS011;4812;51.992;8.648;2023-04-26T05:49:55;9.07;;;3.53;;
9547;SDS011;4812;51.992;8.648;2023-04-26T05:52:48;14.52;;;4.13;;
9547;SDS011;4812;51.992;8.648;2023-04-26T05:58:46;8.82;;;3.40;;
9547;SDS011;4812;51.992;8.648;2023-04-26T06:01:40;6.22;;;3.42;;
9547;SDS011;4812;51.992;8.648;2023-04-26T06:04:32;11.60;;;4.18;;
9547;SDS011;4812;51.992;8.648;2023-04-26T06:07:31;10.68;;;3.17;;
9547;SDS011;4812;51.992;8.648;2023-04-26T06:10:26;7.78;;;3.42;;
9547;SDS011;4812;51.992;8.648;2023-04-26T06:16:40;8.93;;;2.88;;
9547;SDS011;4812;51.992;8.648;2023-04-26T06:19:34;7.47;;;2.95;;
9547;SDS011;4812;51.992;8.648;2023-04-26T06:22:27;6.82;;;2.95;;
9547;SDS011;4812;51.992;8.648;2023-04-26T06:25:21;9.05;;;3.53;;
9547;SDS011;4812;51.992;8.648;2023-04-26T06:28:13;14.15;;;3.97;;
9547;SDS011;4812;51.992;8.648;2023-04-26T06:31:06;9.82;;;3.03;;
9547;SDS011;4812;51.992;8.648;2023-04-26T06:33:59;8.63;;;2.80;;
9547;SDS011;4812;51.992;8.648;2023-04-26T06:36:52;9.05;;;3.05;;
9547;SDS011;4812;51.992;8.648;2023-04-26T06:39:46;5.17;;;2.60;;
9547;SDS011;4812;51.992;8.648;2023-04-26T06:42:40;10.55;;;3.60;;
9547;SDS011;4812;51.992;8.648;2023-04-26T06:49:03;10.20;;;3.35;;
9547;SDS011;4812;51.992;8.648;2023-04-26T06:51:56;10.90;;;3.33;;
9547;SDS011;4812;51.992;8.648;2023-04-26T06:54:49;9.25;;;3.20;;
9547;SDS011;4812;51.992;8.648;2023-04-26T06:57:49;8.45;;;2.95;;
9547;SDS011;4812;51.992;8.648;2023-04-26T07:00:41;7.22;;;2.70;;
9547;SDS011;4812;51.992;8.648;2023-04-26T07:03:34;6.82;;;3.00;;
9547;SDS011;4812;51.992;8.648;2023-04-26T07:06:29;6.20;;;3.08;;
9547;SDS011;4812;51.992;8.648;2023-04-26T07:09:22;6.80;;;3.53;;
9547;SDS011;4812;51.992;8.648;2023-04-26T07:12:15;6.80;;;2.88;;
9547;SDS011;4812;51.992;8.648;2023-04-26T07:15:10;9.75;;;3.55;;
9547;SDS011;4812;51.992;8.648;2023-04-26T07:18:02;12.52;;;3.00;;
9547;SDS011;4812;51.992;8.648;2023-04-26T07:24:24;7.88;;;2.47;;
9547;SDS011;4812;51.992;8.648;2023-04-26T07:30:24;7.63;;;2.50;;
9547;SDS011;4812;51.992;8.648;2023-04-26T07:33:17;7.32;;;2.47;;
9547;SDS011;4812;51.992;8.648;2023-04-26T07:36:11;6.90;;;3.67;;
9547;SDS011;4812;51.992;8.648;2023-04-26T07:39:03;10.55;;;3.13;;
9547;SDS011;4812;51.992;8.648;2023-04-26T07:45:14;7.50;;;2.30;;
9547;SDS011;4812;51.992;8.648;2023-04-26T07:48:09;5.78;;;2.05;;
9547;SDS011;4812;51.992;8.648;2023-04-26T07:51:05;8.23;;;2.63;;
9547;SDS011;4812;51.992;8.648;2023-04-26T07:53:58;9.15;;;2.50;;
9547;SDS011;4812;51.992;8.648;2023-04-26T07:56:51;6.32;;;1.98;;
9547;SDS011;4812;51.992;8.648;2023-04-26T07:59:48;8.30;;;2.38;;
9547;SDS011;4812;51.992;8.648;2023-04-26T08:02:40;5.50;;;1.98;;
9547;SDS011;4812;51.992;8.648;2023-04-26T08:05:36;4.50;;;2.17;;
9547;SDS011;4812;51.992;8.648;2023-04-26T08:08:29;13.75;;;3.30;;
9547;SDS011;4812;51.992;8.648;2023-04-26T08:11:23;7.63;;;2.42;;
9547;SDS011;4812;51.992;8.648;2023-04-26T08:14:16;6.05;;;2.17;;
9547;SDS011;4812;51.992;8.648;2023-04-26T08:17:09;7.75;;;2.20;;
9547;SDS011;4812;51.992;8.648;2023-04-26T08:20:02;6.50;;;2.45;;
9547;SDS011;4812;51.992;8.648;2023-04-26T08:26:34;5.90;;;2.13;;
9547;SDS011;4812;51.992;8.648;2023-04-26T08:29:26;6.35;;;2.42;;
9547;SDS011;4812;51.992;8.648;2023-04-26T08:32:19;10.40;;;2.33;;
9547;SDS011;4812;51.992;8.648;2023-04-26T08:35:12;8.68;;;2.78;;
9547;SDS011;4812;51.992;8.648;2023-04-26T08:38:05;7.18;;;2.17;;
9547;SDS011;4812;51.992;8.648;2023-04-26T08:40:58;6.72;;;2.40;;
9547;SDS011;4812;51.992;8.648;2023-04-26T08:43:54;8.07;;;3.05;;
9547;SDS011;4812;51.992;8.648;2023-04-26T08:46:50;6.35;;;1.70;;
9547;SDS011;4812;51.992;8.648;2023-04-26T08:49:50;6.25;;;1.50;;
9547;SDS011;4812;51.992;8.648;2023-04-26T08:52:50;6.35;;;1.75;;
9547;SDS011;4812;51.992;8.648;2023-04-26T08:55:46;5.10;;;1.90;;
9547;SDS011;4812;51.992;8.648;2023-04-26T08:58:39;7.85;;;1.90;;
9547;SDS011;4812;51.992;8.648;2023-04-26T09:01:34;10.80;;;2.20;;
9547;SDS011;4812;51.992;8.648;2023-04-26T09:04:46;3.25;;;1.80;;
9547;SDS011;4812;51.992;8.648;2023-04-26T09:07:40;5.68;;;1.63;;
9547;SDS011;4812;51.992;8.648;2023-04-26T09:10:33;4.88;;;1.25;;
9547;SDS011;4812;51.992;8.648;2023-04-26T09:13:28;7.20;;;2.03;;
9547;SDS011;4812;51.992;8.648;2023-04-26T09:16:34;2.95;;;1.48;;
9547;SDS011;4812;51.992;8.648;2023-04-26T09:19:33;7.38;;;2.25;;
9547;SDS011;4812;51.992;8.648;2023-04-26T09:22:27;4.45;;;1.90;;
9547;SDS011;4812;51.992;8.648;2023-04-26T09:25:25;3.67;;;1.83;;
9547;SDS011;4812;51.992;8.648;2023-04-26T09:28:20;6.78;;;1.77;;
9547;SDS011;4812;51.992;8.648;2023-04-26T09:34:06;5.93;;;2.13;;
9547;SDS011;4812;51.992;8.648;2023-04-26T09:37:00;2.77;;;1.40;;
9547;SDS011;4812;51.992;8.648;2023-04-26T09:39:53;7.00;;;1.92;;
9547;SDS011;4812;51.992;8.648;2023-04-26T09:42:45;12.27;;;1.98;;
9547;SDS011;4812;51.992;8.648;2023-04-26T09:45:45;4.43;;;1.55;;
9547;SDS011;4812;51.992;8.648;2023-04-26T09:48:40;7.47;;;1.52;;
9547;SDS011;4812;51.992;8.648;2023-04-26T09:51:34;6.63;;;1.27;;
9547;SDS011;4812;51.992;8.648;2023-04-26T09:54:40;3.22;;;1.13;;
9547;SDS011;4812;51.992;8.648;2023-04-26T09:57:41;5.80;;;1.63;;
9547;SDS011;4812;51.992;8.648;2023-04-26T10:00:35;5.53;;;1.92;;
9547;SDS011;4812;51.992;8.648;2023-04-26T10:03:30;3.90;;;1.45;;
9547;SDS011;4812;51.992;8.648;2023-04-26T10:06:26;6.20;;;2.00;;
9547;SDS011;4812;51.992;8.648;2023-04-26T10:12:27;3.75;;;1.52;;
9547;SDS011;4812;51.992;8.648;2023-04-26T10:19:06;8.23;;;1.92;;
9547;SDS011;4812;51.992;8.648;2023-04-26T10:25:07;7.00;;;2.60;;
9547;SDS011;4812;51.992;8.648;2023-04-26T10:35:10;7.65;;;3.50;;
9547;SDS011;4812;51.992;8.648;2023-04-26T10:38:08;14.60;;;2.65;;
9547;SDS011;4812;51.992;8.648;2023-04-26T10:40:55;5.15;;;1.90;;
9547;SDS011;4812;51.992;8.648;2023-04-26T10:43:41;5.63;;;1.73;;
9547;SDS011;4812;51.992;8.648;2023-04-26T10:46:36;5.35;;;2.28;;
9547;SDS011;4812;51.992;8.648;2023-04-26T10:49:25;6.05;;;2.15;;
9547;SDS011;4812;51.992;8.648;2023-04-26T10:52:11;7.68;;;1.80;;
9547;SDS011;4812;51.992;8.648;2023-04-26T10:54:59;4.35;;;1.80;;
9547;SDS011;4812;51.992;8.648;2023-04-26T10:57:46;5.57;;;1.40;;
9547;SDS011;4812;51.992;8.648;2023-04-26T11:04:00;5.18;;;1.48;;
9547;SDS011;4812;51.992;8.648;2023-04-26T11:06:49;6.90;;;2.10;;
9547;SDS011;4812;51.992;8.648;2023-04-26T11:09:47;6.22;;;1.90;;
9547;SDS011;4812;51.992;8.648;2023-04-26T11:12:40;3.03;;;1.67;;
9547;SDS011;4812;51.992;8.648;2023-04-26T11:15:34;5.57;;;1.70;;
9547;SDS011;4812;51.992;8.648;2023-04-26T11:18:27;6.40;;;2.35;;
9547;SDS011;4812;51.992;8.648;2023-04-26T11:24:34;8.57;;;2.20;;
9547;SDS011;4812;51.992;8.648;2023-04-26T11:27:27;7.50;;;2.55;;
9547;SDS011;4812;51.992;8.648;2023-04-26T11:30:19;5.85;;;2.20;;
9547;SDS011;4812;51.992;8.648;2023-04-26T11:33:16;8.77;;;2.60;;
9547;SDS011;4812;51.992;8.648;2023-04-26T11:36:09;9.77;;;2.95;;
9547;SDS011;4812;51.992;8.648;2023-04-26T11:39:03;5.97;;;2.50;;
9547;SDS011;4812;51.992;8.648;2023-04-26T11:45:11;9.35;;;2.17;;
9547;SDS011;4812;51.992;8.648;2023-04-26T11:48:06;4.90;;;2.13;;
9547;SDS011;4812;51.992;8.648;2023-04-26T11:51:01;7.78;;;3.30;;
9547;SDS011;4812;51.992;8.648;2023-04-26T11:53:54;8.77;;;2.85;;
9547;SDS011;4812;51.992;8.648;2023-04-26T11:56:47;3.05;;;1.60;;
9547;SDS011;4812;51.992;8.648;2023-04-26T11:59:40;6.30;;;2.17;;
9547;SDS011;4812;51.992;8.648;2023-04-26T12:02:35;4.50;;;1.65;;
9547;SDS011;4812;51.992;8.648;2023-04-26T12:05:28;4.22;;;2.08;;
9547;SDS011;4812;51.992;8.648;2023-04-26T12:08:22;8.10;;;2.10;;
9547;SDS011;4812;51.992;8.648;2023-04-26T12:14:31;9.15;;;2.38;;
9547;SDS011;4812;51.992;8.648;2023-04-26T12:17:26;3.00;;;1.55;;
9547;SDS011;4812;51.992;8.648;2023-04-26T12:20:26;5.55;;;1.80;;
9547;SDS011;4812;51.992;8.648;2023-04-26T12:26:47;3.03;;;1.60;;
9547;SDS011;4812;51.992;8.648;2023-04-26T12:29:40;3.13;;;1.90;;
9547;SDS011;4812;51.992;8.648;2023-04-26T12:32:33;4.40;;;2.05;;
9547;SDS011;4812;51.992;8.648;2023-04-26T12:35:42;6.07;;;1.85;;
9547;SDS011;4812;51.992;8.648;2023-04-26T12:38:35;3.97;;;2.03;;
9547;SDS011;4812;51.992;8.648;2023-04-26T12:41:28;4.18;;;1.80;;
9547;SDS011;4812;51.992;8.648;2023-04-26T12:44:25;4.37;;;2.07;;
9547;SDS011;4812;51.992;8.648;2023-04-26T12:47:18;3.22;;;1.67;;
9547;SDS011;4812;51.992;8.648;2023-04-26T12:50:11;6.15;;;1.73;;
9547;SDS011;4812;51.992;8.648;2023-04-26T12:53:04;6.38;;;1.52;;
9547;SDS011;4812;51.992;8.648;2023-04-26T12:55:57;5.28;;;1.60;;
9547;SDS011;4812;51.992;8.648;2023-04-26T12:58:50;6.18;;;1.67;;
9547;SDS011;4812;51.992;8.648;2023-04-26T13:01:43;3.38;;;1.90;;
9547;SDS011;4812;51.992;8.648;2023-04-26T13:04:36;3.47;;;1.98;;
9547;SDS011;4812;51.992;8.648;2023-04-26T13:13:39;4.10;;;1.92;;
9547;SDS011;4812;51.992;8.648;2023-04-26T13:16:35;4.05;;;1.88;;
9547;SDS011;4812;51.992;8.648;2023-04-26T13:19:32;6.22;;;2.40;;
9547;SDS011;4812;51.992;8.648;2023-04-26T13:22:25;6.75;;;2.13;;
9547;SDS011;4812;51.992;8.648;2023-04-26T13:25:18;3.25;;;2.10;;
9547;SDS011;4812;51.992;8.648;2023-04-26T13:28:06;9.02;;;2.83;;
9547;SDS011;4812;51.992;8.648;2023-04-26T13:31:01;4.13;;;1.80;;
9547;SDS011;4812;51.992;8.648;2023-04-26T13:37:10;3.50;;;1.63;;
9547;SDS011;4812;51.992;8.648;2023-04-26T13:40:04;4.13;;;1.88;;
9547;SDS011;4812;51.992;8.648;2023-04-26T13:42:57;6.20;;;2.15;;
9547;SDS011;4812;51.992;8.648;2023-04-26T13:45:50;3.28;;;1.80;;
9547;SDS011;4812;51.992;8.648;2023-04-26T13:48:44;5.72;;;2.45;;
9547;SDS011;4812;51.992;8.648;2023-04-26T13:51:37;5.78;;;2.50;;
9547;SDS011;4812;51.992;8.648;2023-04-26T13:54:29;7.18;;;2.40;;
9547;SDS011;4812;51.992;8.648;2023-04-26T13:57:22;9.52;;;3.10;;
9547;SDS011;4812;51.992;8.648;2023-04-26T14:00:15;3.85;;;1.83;;
9547;SDS011;4812;51.992;8.648;2023-04-26T14:03:10;10.63;;;2.30;;
9547;SDS011;4812;51.992;8.648;2023-04-26T14:06:05;2.72;;;1.30;;
9547;SDS011;4812;51.992;8.648;2023-04-26T14:08:58;3.20;;;1.85;;
9547;SDS011;4812;51.992;8.648;2023-04-26T14:11:51;3.92;;;2.15;;
9547;SDS011;4812;51.992;8.648;2023-04-26T14:14:58;5.35;;;2.45;;
9547;SDS011;4812;51.992;8.648;2023-04-26T14:20:59;5.15;;;1.85;;
9547;SDS011;4812;51.992;8.648;2023-04-26T14:23:54;4.68;;;1.77;;
9547;SDS011;4812;51.992;8.648;2023-04-26T14:26:47;2.90;;;1.35;;
9547;SDS011;4812;51.992;8.648;2023-04-26T14:29:40;5.68;;;1.30;;
9547;SDS011;4812;51.992;8.648;2023-04-26T14:32:32;4.22;;;1.70;;
9547;SDS011;4812;51.992;8.648;2023-04-26T14:35:24;3.20;;;1.52;;
9547;SDS011;4812;51.992;8.648;2023-04-26T14:38:17;5.35;;;2.38;;
9547;SDS011;4812;51.992;8.648;2023-04-26T14:41:13;3.90;;;1.85;;
9547;SDS011;4812;51.992;8.648;2023-04-26T14:44:07;3.83;;;1.65;;
9547;SDS011;4812;51.992;8.648;2023-04-26T14:50:12;4.20;;;1.90;;
9547;SDS011;4812;51.992;8.648;2023-04-26T14:53:05;3.65;;;1.50;;
9547;SDS011;4812;51.992;8.648;2023-04-26T14:55:58;4.25;;;1.83;;
9547;SDS011;4812;51.992;8.648;2023-04-26T14:58:52;7.13;;;1.98;;
9547;SDS011;4812;51.992;8.648;2023-04-26T15:01:45;5.00;;;2.35;;
9547;SDS011;4812;51.992;8.648;2023-04-26T15:04:37;3.47;;;1.65;;
9547;SDS011;4812;51.992;8.648;2023-04-26T15:07:39;5.70;;;2.60;;
9547;SDS011;4812;51.992;8.648;2023-04-26T15:10:32;8.65;;;2.22;;
9547;SDS011;4812;51.992;8.648;2023-04-26T15:13:25;8.07;;;3.15;;
9547;SDS011;4812;51.992;8.648;2023-04-26T15:16:19;8.38;;;2.67;;
9547;SDS011;4812;51.992;8.648;2023-04-26T15:19:13;4.78;;;2.00;;
9547;SDS011;4812;51.992;8.648;2023-04-26T15:22:07;3.65;;;2.03;;
9547;SDS011;4812;51.992;8.648;2023-04-26T15:25:00;7.55;;;2.72;;
9547;SDS011;4812;51.992;8.648;2023-04-26T15:31:14;6.63;;;2.80;;
9547;SDS011;4812;51.992;8.648;2023-04-26T15:43:19;13.70;;;3.10;;
9547;SDS011;4812;51.992;8.648;2023-04-26T15:49:28;6.47;;;2.53;;
9547;SDS011;4812;51.992;8.648;2023-04-26T15:52:23;6.35;;;2.38;;
9547;SDS011;4812;51.992;8.648;2023-04-26T15:55:15;5.32;;;2.80;;
9547;SDS011;4812;51.992;8.648;2023-04-26T15:58:08;8.38;;;2.97;;
9547;SDS011;4812;51.992;8.648;2023-04-26T16:01:01;8.73;;;3.45;;
9547;SDS011;4812;51.992;8.648;2023-04-26T16:03:54;6.82;;;3.00;;
9547;SDS011;4812;51.992;8.648;2023-04-26T16:06:47;7.38;;;2.08;;
9547;SDS011;4812;51.992;8.648;2023-04-26T16:09:42;4.35;;;2.58;;
9547;SDS011;4812;51.992;8.648;2023-04-26T16:12:36;4.25;;;2.70;;
9547;SDS011;4812;51.992;8.648;2023-04-26T16:18:59;8.27;;;2.88;;
9547;SDS011;4812;51.992;8.648;2023-04-26T16:21:52;8.93;;;2.70;;
9547;SDS011;4812;51.992;8.648;2023-04-26T16:24:46;5.13;;;2.70;;
9547;SDS011;4812;51.992;8.648;2023-04-26T16:27:38;5.72;;;2.28;;
9547;SDS011;4812;51.992;8.648;2023-04-26T16:30:31;5.70;;;2.47;;
9547;SDS011;4812;51.992;8.648;2023-04-26T16:33:24;8.15;;;2.60;;
9547;SDS011;4812;51.992;8.648;2023-04-26T16:39:48;5.60;;;2.33;;
9547;SDS011;4812;51.992;8.648;2023-04-26T16:42:46;5.07;;;2.78;;
9547;SDS011;4812;51.992;8.648;2023-04-26T16:45:39;5.53;;;2.15;;
9547;SDS011;4812;51.992;8.648;2023-04-26T16:48:32;5.55;;;2.92;;
9547;SDS011;4812;51.992;8.648;2023-04-26T16:51:25;7.93;;;2.78;;
9547;SDS011;4812;51.992;8.648;2023-04-26T16:54:18;6.13;;;2.80;;
9547;SDS011;4812;51.992;8.648;2023-04-26T16:57:13;6.20;;;2.13;;
9547;SDS011;4812;51.992;8.648;2023-04-26T17:00:06;11.25;;;3.03;;
9547;SDS011;4812;51.992;8.648;2023-04-26T17:03:02;6.25;;;2.40;;
9547;SDS011;4812;51.992;8.648;2023-04-26T17:05:55;4.85;;;2.38;;
9547;SDS011;4812;51.992;8.648;2023-04-26T17:12:06;6.65;;;3.13;;
9547;SDS011;4812;51.992;8.648;2023-04-26T17:18:07;5.40;;;2.72;;
9547;SDS011;4812;51.992;8.648;2023-04-26T17:21:01;9.25;;;2.63;;
9547;SDS011;4812;51.992;8.648;2023-04-26T17:23:54;6.60;;;2.90;;
9547;SDS011;4812;51.992;8.648;2023-04-26T17:26:46;5.32;;;2.60;;
9547;SDS011;4812;51.992;8.648;2023-04-26T17:32:51;5.28;;;2.45;;
9547;SDS011;4812;51.992;8.648;2023-04-26T17:35:45;4.90;;;2.65;;
9547;SDS011;4812;51.992;8.648;2023-04-26T17:38:38;4.85;;;2.58;;
9547;SDS011;4812;51.992;8.648;2023-04-26T17:41:31;8.20;;;2.60;;
9547;SDS011;4812;51.992;8.648;2023-04-26T17:44:24;8.75;;;3.72;;
9547;SDS011;4812;51.992;8.648;2023-04-26T17:47:17;8.02;;;3.70;;
9547;SDS011;4812;51.992;8.648;2023-04-26T17:50:10;5.90;;;3.28;;
9547;SDS011;4812;51.992;8.648;2023-04-26T17:53:04;6.75;;;3.33;;
9547;SDS011;4812;51.992;8.648;2023-04-26T17:55:58;6.13;;;2.67;;
9547;SDS011;4812;51.992;8.648;2023-04-26T17:58:51;7.07;;;3.05;;
9547;SDS011;4812;51.992;8.648;2023-04-26T18:04:51;6.50;;;3.10;;
9547;SDS011;4812;51.992;8.648;2023-04-26T18:11:31;6.72;;;3.20;;
9547;SDS011;4812;51.992;8.648;2023-04-26T18:17:31;8.38;;;4.32;;
9547;SDS011;4812;51.992;8.648;2023-04-26T18:20:24;7.47;;;3.67;;
9547;SDS011;4812;51.992;8.648;2023-04-26T18:23:17;7.45;;;3.42;;
9547;SDS011;4812;51.992;8.648;2023-04-26T18:26:10;5.00;;;3.80;;
9547;SDS011;4812;51.992;8.648;2023-04-26T18:29:05;8.68;;;3.25;;
9547;SDS011;4812;51.992;8.648;2023-04-26T18:31:57;9.27;;;3.75;;
9547;SDS011;4812;51.992;8.648;2023-04-26T18:34:50;7.57;;;3.80;;
9547;SDS011;4812;51.992;8.648;2023-04-26T18:37:46;4.78;;;3.63;;
9547;SDS011;4812;51.992;8.648;2023-04-26T18:46:56;6.93;;;3.47;;
9547;SDS011;4812;51.992;8.648;2023-04-26T18:49:49;7.32;;;4.22;;
9547;SDS011;4812;51.992;8.648;2023-04-26T18:55:54;8.80;;;4.00;;
9547;SDS011;4812;51.992;8.648;2023-04-26T19:02:05;7.97;;;4.55;;
9547;SDS011;4812;51.992;8.648;2023-04-26T19:04:58;6.68;;;3.97;;
9547;SDS011;4812;51.992;8.648;2023-04-26T19:07:51;9.70;;;4.30;;
9547;SDS011;4812;51.992;8.648;2023-04-26T19:14:04;8.32;;;4.15;;
9547;SDS011;4812;51.992;8.648;2023-04-26T19:20:44;9.38;;;4.55;;
9547;SDS011;4812;51.992;8.648;2023-04-26T19:26:49;8.95;;;3.90;;
9547;SDS011;4812;51.992;8.648;2023-04-26T19:29:42;15.05;;;4.13;;
9547;SDS011;4812;51.992;8.648;2023-04-26T19:32:33;9.75;;;4.82;;
9547;SDS011;4812;51.992;8.648;2023-04-26T19:35:26;8.10;;;4.28;;
9547;SDS011;4812;51.992;8.648;2023-04-26T19:38:20;6.88;;;4.00;;
9547;SDS011;4812;51.992;8.648;2023-04-26T19:41:12;9.20;;;4.50;;
9547;SDS011;4812;51.992;8.648;2023-04-26T19:44:05;8.68;;;4.82;;
9547;SDS011;4812;51.992;8.648;2023-04-26T19:46:58;6.90;;;4.25;;
9547;SDS011;4812;51.992;8.648;2023-04-26T19:49:51;8.77;;;4.43;;
9547;SDS011;4812;51.992;8.648;2023-04-26T19:52:44;9.63;;;4.93;;
9547;SDS011;4812;51.992;8.648;2023-04-26T19:55:39;11.65;;;5.38;;
9547;SDS011;4812;51.992;8.648;2023-04-26T19:58:32;7.03;;;4.40;;
9547;SDS011;4812;51.992;8.648;2023-04-26T20:01:25;8.88;;;4.25;;
9547;SDS011;4812;51.992;8.648;2023-04-26T20:04:18;5.25;;;3.70;;
9547;SDS011;4812;51.992;8.648;2023-04-26T20:07:11;8.75;;;4.47;;
9547;SDS011;4812;51.992;8.648;2023-04-26T20:13:34;10.88;;;4.25;;
9547;SDS011;4812;51.992;8.648;2023-04-26T20:16:27;8.48;;;3.92;;
9547;SDS011;4812;51.992;8.648;2023-04-26T20:22:39;8.40;;;3.97;;
9547;SDS011;4812;51.992;8.648;2023-04-26T20:25:32;8.77;;;4.15;;
9547;SDS011;4812;51.992;8.648;2023-04-26T20:28:26;10.85;;;3.55;;
9547;SDS011;4812;51.992;8.648;2023-04-26T20:31:20;5.80;;;3.70;;
9547;SDS011;4812;51.992;8.648;2023-04-26T20:37:25;7.97;;;3.88;;
9547;SDS011;4812;51.992;8.648;2023-04-26T20:40:18;7.38;;;4.68;;
9547;SDS011;4812;51.992;8.648;2023-04-26T20:43:12;5.63;;;3.75;;
9547;SDS011;4812;51.992;8.648;2023-04-26T20:46:05;5.45;;;3.88;;
9547;SDS011;4812;51.992;8.648;2023-04-26T20:48:59;7.43;;;3.95;;
9547;SDS011;4812;51.992;8.648;2023-04-26T20:55:09;7.68;;;4.55;;
9547;SDS011;4812;51.992;8.648;2023-04-26T20:58:02;11.35;;;4.85;;
9547;SDS011;4812;51.992;8.648;2023-04-26T21:00:54;8.43;;;4.43;;
9547;SDS011;4812;51.992;8.648;2023-04-26T21:03:49;10.73;;;4.35;;
9547;SDS011;4812;51.992;8.648;2023-04-26T21:06:43;6.90;;;4.10;;
9547;SDS011;4812;51.992;8.648;2023-04-26T21:09:36;6.63;;;4.18;;
9547;SDS011;4812;51.992;8.648;2023-04-26T21:12:29;12.43;;;5.10;;
9547;SDS011;4812;51.992;8.648;2023-04-26T21:15:22;7.20;;;4.35;;
9547;SDS011;4812;51.992;8.648;2023-04-26T21:18:15;7.35;;;5.07;;
9547;SDS011;4812;51.992;8.648;2023-04-26T21:21:08;11.73;;;6.07;;
9547;SDS011;4812;51.992;8.648;2023-04-26T21:24:02;10.43;;;4.97;;
9547;SDS011;4812;51.992;8.648;2023-04-26T21:26:55;7.90;;;4.93;;
9547;SDS011;4812;51.992;8.648;2023-04-26T21:29:48;8.90;;;4.32;;
9547;SDS011;4812;51.992;8.648;2023-04-26T21:32:41;17.40;;;4.70;;
9547;SDS011;4812;51.992;8.648;2023-04-26T21:35:34;7.25;;;4.70;;
9547;SDS011;4812;51.992;8.648;2023-04-26T21:38:27;7.35;;;5.10;;
9547;SDS011;4812;51.992;8.648;2023-04-26T21:41:21;7.40;;;4.70;;